createdAt,value
2018-06-08T00:01:41.110Z,24.47
2018-06-08T00:04:09.953Z,20.17
2018-06-08T00:06:38.678Z,20.97
2018-06-08T00:09:09.214Z,20.50
2018-06-08T00:11:37.968Z,20.77
2018-06-08T00:14:06.710Z,23.07
2018-06-08T00:16:35.494Z,21.13
2018-06-08T00:19:04.213Z,21.80
2018-06-08T00:21:32.943Z,22.00
2018-06-08T00:24:01.699Z,20.47
2018-06-08T00:26:30.457Z,20.47
2018-06-08T00:28:59.168Z,24.80
2018-06-08T00:31:28.000Z,21.20
2018-06-08T00:33:56.731Z,19.47
2018-06-08T00:36:25.517Z,19.27
2018-06-08T00:38:54.274Z,19.83
2018-06-08T00:41:23.013Z,21.03
2018-06-08T00:43:51.739Z,23.87
2018-06-08T00:46:20.501Z,24.37
2018-06-08T00:48:49.229Z,24.10
2018-06-08T00:51:17.998Z,25.20
2018-06-08T00:53:46.762Z,27.97
2018-06-08T00:56:26.594Z,29.80
2018-06-08T00:58:55.345Z,24.97
2018-06-08T01:01:24.067Z,23.10
2018-06-08T01:03:52.795Z,25.70
2018-06-08T01:06:21.522Z,26.33
2018-06-08T01:08:50.318Z,24.70
2018-06-08T01:11:19.054Z,23.00
2018-06-08T01:13:47.851Z,21.70
2018-06-08T01:16:16.566Z,22.20
2018-06-08T01:18:45.282Z,19.67
2018-06-08T01:21:14.192Z,27.40
2018-06-08T01:23:42.894Z,24.43
2018-06-08T01:26:11.623Z,21.80
2018-06-08T01:28:40.441Z,23.87
2018-06-08T01:31:09.142Z,22.17
2018-06-08T01:33:37.852Z,23.83
2018-06-08T01:36:06.703Z,22.17
2018-06-08T01:38:35.401Z,20.37
2018-06-08T01:41:04.139Z,20.80
2018-06-08T01:43:32.887Z,19.13
2018-06-08T01:46:01.614Z,22.23
2018-06-08T01:48:30.329Z,21.33
2018-06-08T01:50:59.081Z,20.87
2018-06-08T01:53:27.892Z,20.47
2018-06-08T01:55:56.618Z,19.50
2018-06-08T01:58:25.425Z,20.93
2018-06-08T02:00:54.180Z,20.00
2018-06-08T02:03:22.926Z,19.57
2018-06-08T02:05:51.694Z,18.17
2018-06-08T02:08:20.423Z,19.00
2018-06-08T02:10:49.141Z,18.13
2018-06-08T02:13:17.910Z,16.83
2018-06-08T02:15:46.709Z,19.30
2018-06-08T02:18:15.485Z,18.90
2018-06-08T02:20:44.262Z,18.00
2018-06-08T02:23:13.033Z,20.70
2018-06-08T02:25:41.733Z,21.73
2018-06-08T02:28:10.540Z,20.30
2018-06-08T02:30:39.246Z,21.70
2018-06-08T02:33:08.002Z,23.73
2018-06-08T02:35:36.769Z,17.53
2018-06-08T02:38:05.519Z,17.40
2018-06-08T02:40:34.241Z,17.10
2018-06-08T02:43:02.973Z,18.90
2018-06-08T02:45:31.693Z,18.00
2018-06-08T02:48:00.397Z,17.43
2018-06-08T02:50:29.171Z,18.73
2018-06-08T02:52:57.870Z,18.93
2018-06-08T02:55:26.574Z,18.70
2018-06-08T02:57:55.311Z,19.07
2018-06-08T03:00:24.020Z,19.33
2018-06-08T03:02:52.746Z,17.13
2018-06-08T03:05:21.492Z,18.47
2018-06-08T03:07:50.209Z,18.73
2018-06-08T03:10:18.929Z,19.47
2018-06-08T03:12:47.923Z,19.00
2018-06-08T03:15:16.754Z,18.23
2018-06-08T03:17:45.678Z,17.90
2018-06-08T03:20:14.596Z,20.83
2018-06-08T03:22:43.293Z,17.67
2018-06-08T03:25:12.008Z,19.60
2018-06-08T03:27:40.720Z,17.23
2018-06-08T03:30:09.485Z,27.03
2018-06-08T03:32:38.187Z,30.27
2018-06-08T03:35:06.928Z,31.67
2018-06-08T03:37:35.781Z,17.13
2018-06-08T03:40:04.518Z,15.97
2018-06-08T03:42:33.249Z,15.50
2018-06-08T03:45:01.950Z,12.50
2018-06-08T03:47:30.697Z,13.17
2018-06-08T03:49:59.441Z,11.40
2018-06-08T03:52:28.170Z,11.97
2018-06-08T03:54:56.896Z,12.40
2018-06-08T03:57:25.742Z,10.57
2018-06-08T03:59:54.473Z,11.23
2018-06-08T04:02:23.256Z,11.87
2018-06-08T04:04:52.013Z,12.30
2018-06-08T04:07:20.742Z,9.30
2018-06-08T04:09:49.460Z,9.97
2018-06-08T04:12:18.227Z,11.47
2018-06-08T04:14:47.175Z,11.20
2018-06-08T04:17:15.898Z,10.80
2018-06-08T04:19:44.642Z,10.50
2018-06-08T04:22:13.355Z,10.23
2018-06-08T04:24:42.079Z,9.37
2018-06-08T04:27:10.847Z,10.07
2018-06-08T04:29:39.670Z,11.97
2018-06-08T04:32:08.374Z,12.73
2018-06-08T04:34:37.120Z,13.40
2018-06-08T04:37:05.873Z,11.57
2018-06-08T04:39:34.658Z,10.27
2018-06-08T04:42:03.401Z,10.57
2018-06-08T04:44:32.106Z,8.93
2018-06-08T04:47:00.803Z,9.03
2018-06-08T04:49:29.637Z,8.53
2018-06-08T04:51:58.356Z,10.73
2018-06-08T04:54:27.065Z,12.97
2018-06-08T04:56:55.814Z,10.80
2018-06-08T04:59:24.513Z,10.43
2018-06-08T05:01:53.233Z,9.87
2018-06-08T05:04:21.998Z,8.20
2018-06-08T05:06:50.719Z,8.43
2018-06-08T05:09:19.509Z,7.40
2018-06-08T05:11:48.236Z,6.03
2018-06-08T05:14:17.070Z,5.73
2018-06-08T05:16:45.781Z,4.70
2018-06-08T05:19:14.528Z,5.10
2018-06-08T05:21:43.372Z,6.63
2018-06-08T05:24:12.083Z,4.20
2018-06-08T05:26:40.821Z,4.83
2018-06-08T05:29:09.552Z,4.73
2018-06-08T05:31:38.277Z,5.23
2018-06-08T05:34:07.045Z,5.60
2018-06-08T05:36:35.757Z,5.10
2018-06-08T05:39:07.109Z,4.67
2018-06-08T05:41:36.044Z,4.60
2018-06-08T05:44:04.754Z,5.40
2018-06-08T05:46:33.521Z,5.27
2018-06-08T05:49:02.294Z,4.70
2018-06-08T05:51:31.017Z,6.00
2018-06-08T05:53:59.763Z,6.70
2018-06-08T05:56:28.473Z,5.87
2018-06-08T05:58:57.204Z,6.47
2018-06-08T06:01:25.994Z,8.07
2018-06-08T06:03:54.708Z,6.50
2018-06-08T06:06:23.430Z,6.12
2018-06-08T06:08:52.183Z,6.75
2018-06-08T06:11:20.906Z,8.70
2018-06-08T06:13:49.650Z,7.77
2018-06-08T06:16:18.440Z,5.30
2018-06-08T06:18:47.170Z,6.67
2018-06-08T06:21:15.919Z,6.30
2018-06-08T06:23:44.652Z,5.13
2018-06-08T06:26:13.368Z,5.65
2018-06-08T06:28:42.122Z,5.42
2018-06-08T06:31:11.189Z,4.80
2018-06-08T06:33:39.912Z,4.93
2018-06-08T06:36:08.627Z,6.10
2018-06-08T06:38:37.370Z,4.50
2018-06-08T06:41:06.057Z,4.70
2018-06-08T06:43:34.763Z,7.83
2018-06-08T06:46:03.506Z,4.70
2018-06-08T06:48:32.213Z,4.50
2018-06-08T06:51:01.931Z,5.35
2018-06-08T06:53:30.650Z,3.87
2018-06-08T06:55:59.349Z,3.67
2018-06-08T06:58:28.045Z,3.15
2018-06-08T07:00:56.846Z,4.42
2018-06-08T07:03:25.522Z,3.72
2018-06-08T07:05:54.201Z,3.42
2018-06-08T07:08:23.335Z,3.80
2018-06-08T07:10:52.280Z,5.67
2018-06-08T07:13:21.040Z,10.13
2018-06-08T07:15:49.798Z,9.08
2018-06-08T07:18:18.520Z,7.20
2018-06-08T07:20:47.244Z,6.87
2018-06-08T07:23:16.055Z,7.25
2018-06-08T07:25:44.799Z,6.25
2018-06-08T07:28:13.553Z,5.50
2018-06-08T07:30:42.287Z,6.12
2018-06-08T07:33:11.006Z,4.35
2018-06-08T07:35:39.719Z,5.92
2018-06-08T07:38:08.474Z,5.97
2018-06-08T07:40:37.178Z,5.72
2018-06-08T07:43:05.902Z,5.50
2018-06-08T07:45:34.644Z,4.22
2018-06-08T07:48:03.374Z,4.20
2018-06-08T07:50:32.125Z,4.65
2018-06-08T07:53:00.975Z,4.10
2018-06-08T07:55:29.710Z,3.92
2018-06-08T07:57:58.435Z,3.42
2018-06-08T08:00:27.217Z,5.50
2018-06-08T08:02:55.959Z,5.28
2018-06-08T08:05:24.712Z,4.12
2018-06-08T08:07:53.505Z,5.20
2018-06-08T08:10:22.256Z,3.90
2018-06-08T08:12:51.006Z,3.80
2018-06-08T08:15:19.830Z,3.75
2018-06-08T08:17:48.542Z,4.35
2018-06-08T08:20:17.243Z,4.25
2018-06-08T08:22:45.966Z,5.55
2018-06-08T08:25:14.713Z,5.00
2018-06-08T08:27:43.402Z,5.47
2018-06-08T08:30:12.302Z,3.92
2018-06-08T08:32:40.994Z,4.95
2018-06-08T08:35:09.782Z,4.67
2018-06-08T08:37:38.531Z,4.78
2018-06-08T08:40:07.253Z,3.95
2018-06-08T08:42:35.979Z,4.70
2018-06-08T08:45:04.816Z,3.98
2018-06-08T08:47:34.416Z,4.03
2018-06-08T08:50:03.109Z,3.62
2018-06-08T08:52:31.843Z,4.10
2018-06-08T08:55:00.586Z,3.37
2018-06-08T08:57:29.291Z,3.33
2018-06-08T08:59:58.006Z,3.33
2018-06-08T09:02:26.694Z,5.28
2018-06-08T09:04:55.408Z,4.65
2018-06-08T09:07:24.142Z,3.20
2018-06-08T09:09:52.837Z,3.70
2018-06-08T09:12:21.532Z,4.10
2018-06-08T09:14:50.270Z,3.85
2018-06-08T09:17:18.970Z,4.08
2018-06-08T09:19:47.688Z,2.83
2018-06-08T09:22:16.422Z,3.05
2018-06-08T09:24:45.105Z,3.83
2018-06-08T09:27:13.794Z,3.40
2018-06-08T09:29:42.543Z,2.65
2018-06-08T09:32:11.336Z,5.17
2018-06-08T09:34:40.030Z,3.87
2018-06-08T09:37:08.761Z,3.00
2018-06-08T09:39:37.456Z,3.58
2018-06-08T09:42:06.246Z,3.35
2018-06-08T09:44:35.041Z,3.52
2018-06-08T09:47:03.762Z,3.50
2018-06-08T09:49:32.650Z,3.95
2018-06-08T09:52:01.394Z,3.37
2018-06-08T09:54:30.123Z,4.05
2018-06-08T09:56:58.829Z,3.33
2018-06-08T09:59:27.561Z,3.27
2018-06-08T10:01:56.269Z,3.37
2018-06-08T10:04:25.041Z,4.58
2018-06-08T10:06:53.770Z,3.77
2018-06-08T10:09:22.487Z,4.05
2018-06-08T10:11:51.223Z,3.37
2018-06-08T10:14:20.013Z,3.87
2018-06-08T10:16:48.875Z,3.77
2018-06-08T10:19:17.577Z,3.40
2018-06-08T10:21:46.297Z,3.50
2018-06-08T10:24:14.981Z,2.95
2018-06-08T10:26:43.881Z,3.85
2018-06-08T10:29:12.606Z,2.72
2018-06-08T10:31:41.298Z,2.80
2018-06-08T10:34:09.974Z,2.72
2018-06-08T10:36:38.698Z,3.00
2018-06-08T10:39:08.197Z,3.10
2018-06-08T10:41:36.914Z,3.08
2018-06-08T10:44:05.649Z,4.20
2018-06-08T10:46:34.368Z,3.95
2018-06-08T10:49:03.106Z,3.47
2018-06-08T10:51:31.836Z,4.37
2018-06-08T10:54:00.542Z,4.33
2018-06-08T10:56:29.247Z,4.20
2018-06-08T10:58:57.994Z,3.60
2018-06-08T11:01:26.693Z,4.87
2018-06-08T11:03:55.710Z,3.42
2018-06-08T11:06:24.433Z,3.50
2018-06-08T11:08:53.121Z,4.22
2018-06-08T11:11:21.825Z,4.78
2018-06-08T11:13:50.554Z,4.47
2018-06-08T11:16:19.269Z,3.77
2018-06-08T11:18:47.970Z,4.45
2018-06-08T11:21:16.745Z,5.50
2018-06-08T11:23:45.441Z,6.62
2018-06-08T11:26:14.166Z,4.65
2018-06-08T11:28:42.969Z,4.40
2018-06-08T11:31:12.273Z,4.83
2018-06-08T11:33:40.974Z,3.83
2018-06-08T11:36:09.717Z,4.08
2018-06-08T11:38:38.404Z,3.98
2018-06-08T11:41:07.097Z,3.70
2018-06-08T11:43:35.897Z,4.85
2018-06-08T11:46:04.834Z,5.05
2018-06-08T11:48:33.527Z,3.62
2018-06-08T11:51:02.269Z,6.60
2018-06-08T11:53:30.952Z,4.25
2018-06-08T11:55:59.730Z,4.10
2018-06-08T11:58:28.442Z,4.08
2018-06-08T12:00:57.137Z,3.20
2018-06-08T12:03:25.825Z,5.47
2018-06-08T12:05:54.540Z,4.53
2018-06-08T12:08:23.213Z,4.20
2018-06-08T12:10:51.903Z,4.62
2018-06-08T12:13:20.609Z,7.40
2018-06-08T12:15:49.332Z,4.03
2018-06-08T12:18:18.183Z,5.40
2018-06-08T12:20:47.070Z,6.37
2018-06-08T12:23:15.755Z,5.50
2018-06-08T12:25:44.445Z,4.80
2018-06-08T12:28:13.183Z,5.35
2018-06-08T12:30:41.926Z,6.25
2018-06-08T12:33:10.651Z,5.55
2018-06-08T12:35:39.590Z,7.17
2018-06-08T12:38:08.347Z,7.03
2018-06-08T12:40:37.057Z,8.50
2018-06-08T12:43:05.773Z,5.30
2018-06-08T12:45:34.485Z,5.47
2018-06-08T12:48:03.234Z,7.67
2018-06-08T12:50:31.977Z,6.97
2018-06-08T12:53:00.686Z,6.90
2018-06-08T12:55:29.388Z,5.83
2018-06-08T12:57:58.169Z,6.27
2018-06-08T13:00:26.889Z,6.00
2018-06-08T13:02:55.638Z,5.90
2018-06-08T13:05:24.445Z,6.50
2018-06-08T13:07:53.191Z,5.80
2018-06-08T13:10:21.927Z,6.03
2018-06-08T13:12:50.687Z,6.37
2018-06-08T13:15:19.421Z,7.93
2018-06-08T13:17:48.305Z,6.20
2018-06-08T13:20:17.178Z,7.83
2018-06-08T13:22:45.973Z,7.60
2018-06-08T13:25:14.715Z,7.70
2018-06-08T13:27:43.478Z,6.90
2018-06-08T13:30:12.202Z,5.73
2018-06-08T13:32:41.349Z,6.70
2018-06-08T13:35:10.086Z,7.57
2018-06-08T13:37:38.849Z,7.60
2018-06-08T13:40:07.743Z,9.73
2018-06-08T13:42:36.534Z,8.30
2018-06-08T13:45:05.676Z,8.43
2018-06-08T13:47:34.573Z,6.97
2018-06-08T13:50:03.358Z,7.70
2018-06-08T13:52:32.064Z,8.40
2018-06-08T13:55:00.796Z,7.80
2018-06-08T13:57:29.666Z,8.20
2018-06-08T13:59:58.547Z,8.60
2018-06-08T14:02:27.274Z,8.30
2018-06-08T14:04:56.034Z,7.27
2018-06-08T14:07:24.745Z,7.30
2018-06-08T14:09:53.590Z,9.63
2018-06-08T14:12:22.322Z,8.03
2018-06-08T14:14:51.032Z,9.20
2018-06-08T14:17:19.737Z,9.03
2018-06-08T14:19:48.543Z,9.10
2018-06-08T14:22:17.445Z,8.13
2018-06-08T14:24:46.173Z,9.20
2018-06-08T14:27:16.063Z,8.57
2018-06-08T14:29:44.781Z,8.23
2018-06-08T14:32:13.470Z,8.67
2018-06-08T14:34:42.349Z,7.73
2018-06-08T14:37:11.083Z,9.83
2018-06-08T14:39:39.827Z,9.10
2018-06-08T14:42:08.598Z,8.43
2018-06-08T14:44:37.316Z,9.07
2018-06-08T14:47:06.029Z,8.33
2018-06-08T14:49:35.894Z,9.03
2018-06-08T14:52:04.617Z,8.10
2018-06-08T14:54:33.304Z,8.70
2018-06-08T14:57:02.042Z,8.80
2018-06-08T14:59:30.742Z,9.60
2018-06-08T15:01:59.593Z,8.50
2018-06-08T15:04:28.522Z,8.90
2018-06-08T15:06:57.236Z,10.30
2018-06-08T15:09:25.952Z,8.30
2018-06-08T15:11:54.688Z,10.00
2018-06-08T15:14:23.406Z,10.60
2018-06-08T15:16:52.141Z,7.57
2018-06-08T15:19:20.910Z,9.43
2018-06-08T15:21:49.677Z,10.37
2018-06-08T15:24:18.576Z,9.00
2018-06-08T15:26:47.482Z,8.57
2018-06-08T15:29:16.205Z,8.33
2018-06-08T15:31:44.945Z,11.20
2018-06-08T15:34:13.681Z,8.30
2018-06-08T15:36:42.385Z,8.03
2018-06-08T15:39:11.089Z,7.77
2018-06-08T15:41:39.829Z,9.17
2018-06-08T15:44:08.517Z,8.03
2018-06-08T15:46:37.213Z,8.97
2018-06-08T15:49:05.966Z,8.40
2018-06-08T15:51:34.669Z,7.87
2018-06-08T15:54:03.378Z,10.07
2018-06-08T15:56:32.154Z,10.50
2018-06-08T15:59:01.026Z,9.03
2018-06-08T16:01:29.745Z,7.73
2018-06-08T16:03:58.479Z,8.10
2018-06-08T16:06:27.189Z,9.23
2018-06-08T16:08:55.899Z,8.87
2018-06-08T16:11:24.640Z,7.70
2018-06-08T16:13:53.353Z,8.20
2018-06-08T16:16:22.055Z,9.60
2018-06-08T16:18:50.807Z,8.07
2018-06-08T16:21:19.500Z,10.30
2018-06-08T16:23:48.245Z,7.90
2018-06-08T16:26:17.006Z,8.57
2018-06-08T16:28:45.750Z,10.23
2018-06-08T16:31:14.529Z,9.77
2018-06-08T16:33:43.248Z,9.33
2018-06-08T16:36:11.998Z,8.53
2018-06-08T16:38:40.682Z,8.37
2018-06-08T16:41:09.421Z,12.63
2018-06-08T16:43:38.170Z,8.90
2018-06-08T16:46:06.894Z,10.00
2018-06-08T16:48:35.633Z,8.80
2018-06-08T16:51:04.337Z,7.60
2018-06-08T16:53:33.351Z,8.30
2018-06-08T16:56:02.118Z,9.30
2018-06-08T16:58:30.818Z,8.43
2018-06-08T17:00:59.532Z,8.80
2018-06-08T17:03:28.284Z,9.30
2018-06-08T17:05:57.117Z,9.17
2018-06-08T17:08:25.837Z,9.57
2018-06-08T17:10:54.577Z,7.93
2018-06-08T17:13:23.294Z,7.63
2018-06-08T17:15:52.002Z,9.10
2018-06-08T17:18:20.762Z,9.10
2018-06-08T17:20:49.477Z,8.20
2018-06-08T17:23:18.205Z,8.60
2018-06-08T17:25:46.952Z,8.40
2018-06-08T17:28:15.652Z,7.50
2018-06-08T17:30:44.353Z,9.07
2018-06-08T17:33:13.089Z,7.80
2018-06-08T17:35:41.785Z,8.50
2018-06-08T17:38:10.512Z,8.07
2018-06-08T17:40:39.335Z,7.60
2018-06-08T17:43:08.039Z,8.70
2018-06-08T17:45:36.779Z,9.80
2018-06-08T17:48:05.762Z,10.03
2018-06-08T17:50:34.497Z,8.10
2018-06-08T17:53:03.238Z,10.27
2018-06-08T17:55:32.046Z,9.67
2018-06-08T17:58:00.882Z,8.40
2018-06-08T18:00:29.578Z,9.37
2018-06-08T18:02:58.369Z,8.90
2018-06-08T18:05:27.139Z,8.30
2018-06-08T18:07:55.865Z,9.10
2018-06-08T18:10:24.615Z,8.47
2018-06-08T18:12:53.417Z,9.63
2018-06-08T18:15:22.152Z,8.10
2018-06-08T18:17:50.992Z,9.27
2018-06-08T18:20:19.692Z,8.93
2018-06-08T18:22:48.558Z,8.20
2018-06-08T18:25:18.095Z,9.37
2018-06-08T18:27:46.842Z,8.73
2018-06-08T18:30:15.540Z,11.33
2018-06-08T18:32:44.793Z,8.37
2018-06-08T18:35:13.669Z,9.40
2018-06-08T18:37:42.510Z,8.97
2018-06-08T18:40:11.288Z,9.27
2018-06-08T18:42:39.982Z,9.07
2018-06-08T18:45:08.695Z,9.50
2018-06-08T18:47:37.553Z,9.50
2018-06-08T18:50:06.248Z,8.53
2018-06-08T18:52:35.110Z,9.80
2018-06-08T18:55:03.885Z,10.70
2018-06-08T18:57:32.606Z,9.77
2018-06-08T19:00:01.335Z,8.63
2018-06-08T19:02:30.385Z,9.13
2018-06-08T19:04:59.097Z,9.37
2018-06-08T19:07:27.827Z,9.43
2018-06-08T19:09:56.602Z,9.40
2018-06-08T19:12:25.319Z,11.13
2018-06-08T19:14:54.034Z,10.40
2018-06-08T19:17:22.757Z,12.10
2018-06-08T19:19:51.518Z,9.47
2018-06-08T19:22:20.226Z,12.13
2018-06-08T19:24:49.043Z,9.23
2018-06-08T19:27:17.770Z,9.67
2018-06-08T19:29:46.537Z,12.63
2018-06-08T19:32:15.280Z,9.57
2018-06-08T19:34:44.121Z,14.73
2018-06-08T19:37:12.963Z,10.90
2018-06-08T19:39:41.736Z,13.37
2018-06-08T19:42:10.439Z,13.50
2018-06-08T19:44:39.134Z,12.03
2018-06-08T19:47:07.882Z,13.30
2018-06-08T19:49:36.573Z,12.87
2018-06-08T19:52:05.655Z,12.80
2018-06-08T19:54:34.441Z,14.43
2018-06-08T19:57:03.178Z,16.47
2018-06-08T19:59:31.911Z,16.10
2018-06-08T20:02:00.690Z,15.27
2018-06-08T20:04:29.445Z,18.40
2018-06-08T20:06:58.261Z,16.00
2018-06-08T20:09:27.009Z,18.30
2018-06-08T20:12:07.671Z,14.63
2018-06-08T20:14:36.568Z,15.37
2018-06-08T20:17:05.294Z,13.20
2018-06-08T20:19:34.015Z,11.70
2018-06-08T20:22:02.789Z,12.67
2018-06-08T20:24:31.514Z,12.37
2018-06-08T20:27:00.289Z,12.70
2018-06-08T20:29:29.061Z,15.60
2018-06-08T20:31:57.832Z,13.13
2018-06-08T20:34:26.614Z,13.70
2018-06-08T20:36:55.390Z,12.80
2018-06-08T20:39:24.121Z,13.60
2018-06-08T20:41:52.930Z,12.03
2018-06-08T20:44:21.702Z,14.27
2018-06-08T20:46:50.634Z,14.20
2018-06-08T20:49:19.455Z,13.63
2018-06-08T20:51:48.238Z,14.33
2018-06-08T20:54:17.003Z,19.70
2018-06-08T20:56:45.793Z,14.27
2018-06-08T20:59:14.730Z,15.30
2018-06-08T21:01:43.488Z,14.57
2018-06-08T21:04:12.247Z,20.23
2018-06-08T21:06:41.032Z,12.20
2018-06-08T21:09:10.043Z,14.43
2018-06-08T21:11:38.809Z,13.63
2018-06-08T21:14:07.631Z,15.07
2018-06-08T21:16:36.412Z,15.63
2018-06-08T21:19:05.161Z,15.07
2018-06-08T21:21:33.920Z,15.93
2018-06-08T21:24:02.642Z,16.00
2018-06-08T21:26:31.365Z,17.50
2018-06-08T21:29:00.140Z,14.13
2018-06-08T21:31:28.983Z,15.10
2018-06-08T21:33:57.741Z,18.47
2018-06-08T21:36:26.657Z,16.97
2018-06-08T21:38:55.408Z,15.70
2018-06-08T21:41:24.211Z,19.43
2018-06-08T21:43:52.978Z,17.40
2018-06-08T21:46:21.727Z,14.00
2018-06-08T21:48:50.510Z,14.53
2018-06-08T21:51:19.263Z,13.13
2018-06-08T21:53:47.999Z,13.93
2018-06-08T21:56:17.502Z,16.60
2018-06-08T21:58:46.284Z,18.07
2018-06-08T22:01:15.138Z,16.87
2018-06-08T22:03:43.870Z,16.17
2018-06-08T22:06:12.718Z,17.07
2018-06-08T22:08:41.493Z,17.53
2018-06-08T22:11:10.387Z,18.47
2018-06-08T22:13:39.233Z,12.70
2018-06-08T22:16:08.086Z,14.57
2018-06-08T22:18:36.923Z,12.67
2018-06-08T22:21:05.734Z,14.17
2018-06-08T22:23:34.541Z,12.93
2018-06-08T22:26:03.384Z,13.00
2018-06-08T22:28:32.141Z,12.07
2018-06-08T22:31:00.976Z,12.63
2018-06-08T22:33:29.739Z,14.27
2018-06-08T22:35:58.622Z,13.60
2018-06-08T22:38:27.407Z,12.40
2018-06-08T22:40:56.233Z,14.20
2018-06-08T22:43:25.151Z,13.77
2018-06-08T22:45:53.928Z,13.30
2018-06-08T22:48:22.633Z,11.33
2018-06-08T22:50:51.350Z,13.47
2018-06-08T22:53:20.054Z,11.63
2018-06-08T22:55:48.766Z,10.43
2018-06-08T22:58:17.493Z,12.00
2018-06-08T23:00:46.186Z,11.33
2018-06-08T23:03:14.904Z,12.17
2018-06-08T23:05:43.646Z,14.77
2018-06-08T23:08:12.353Z,13.00
2018-06-08T23:10:41.086Z,11.13
2018-06-08T23:13:09.822Z,11.53
2018-06-08T23:15:38.531Z,11.70
2018-06-08T23:18:07.238Z,12.10
2018-06-08T23:20:35.965Z,13.80
2018-06-08T23:23:04.727Z,11.10
2018-06-08T23:25:33.453Z,12.37
2018-06-08T23:28:02.316Z,10.93
2018-06-08T23:30:31.042Z,12.00
2018-06-08T23:32:59.799Z,11.33
2018-06-08T23:35:28.567Z,11.37
2018-06-08T23:37:57.322Z,12.60
2018-06-08T23:40:26.065Z,12.57
2018-06-08T23:42:59.237Z,12.30
2018-06-08T23:45:27.945Z,13.83
2018-06-08T23:47:56.736Z,12.27
2018-06-08T23:50:25.420Z,14.90
2018-06-08T23:52:54.115Z,16.40
2018-06-08T23:55:23.081Z,12.10
2018-06-08T23:57:51.826Z,13.37
